createdAt,value
2022-10-14T00:01:34.889Z,25.30
2022-10-14T00:04:01.857Z,25.30
2022-10-14T00:06:33.900Z,25.30
2022-10-14T00:09:03.036Z,25.30
2022-10-14T00:11:33.311Z,25.30
2022-10-14T00:14:04.300Z,25.30
2022-10-14T00:16:34.776Z,25.30
2022-10-14T00:19:02.394Z,25.30
2022-10-14T00:21:30.223Z,25.20
2022-10-14T00:23:57.956Z,25.70
2022-10-14T00:26:31.251Z,25.00
2022-10-14T00:28:59.345Z,25.00
2022-10-14T00:31:26.897Z,25.10
2022-10-14T00:33:53.868Z,25.10
2022-10-14T00:36:22.816Z,25.40
2022-10-14T00:38:49.829Z,25.50
2022-10-14T00:41:26.844Z,25.50
2022-10-14T00:43:55.945Z,25.70
2022-10-14T00:46:24.746Z,25.80
2022-10-14T00:48:52.302Z,25.70
2022-10-14T00:51:20.226Z,25.70
2022-10-14T00:53:47.636Z,25.70
2022-10-14T00:56:19.703Z,25.70
2022-10-14T00:58:46.787Z,25.80
2022-10-14T01:01:14.188Z,25.70
2022-10-14T01:03:41.426Z,25.70
2022-10-14T01:06:41.580Z,25.50
2022-10-14T01:09:37.905Z,25.40
2022-10-14T01:12:30.443Z,25.50
2022-10-14T01:15:15.861Z,25.60
2022-10-14T01:18:04.060Z,25.80
2022-10-14T01:20:36.485Z,26.00
2022-10-14T01:23:24.263Z,26.60
2022-10-14T01:26:27.344Z,26.70
2022-10-14T01:29:39.758Z,26.60
2022-10-14T01:32:13.134Z,26.50
2022-10-14T01:34:49.730Z,26.20
2022-10-14T01:37:21.962Z,26.10
2022-10-14T01:39:55.034Z,26.00
2022-10-14T01:42:26.384Z,26.00
2022-10-14T01:45:03.135Z,25.80
2022-10-14T01:47:33.045Z,25.60
2022-10-14T01:50:04.725Z,25.60
2022-10-14T01:52:41.142Z,25.70
2022-10-14T01:55:13.956Z,26.00
2022-10-14T01:57:43.408Z,26.20
2022-10-14T02:00:11.513Z,26.60
2022-10-14T02:02:39.040Z,27.00
2022-10-14T02:05:21.181Z,27.10
2022-10-14T02:07:52.776Z,27.00
2022-10-14T02:10:39.348Z,26.70
2022-10-14T02:13:33.274Z,26.40
2022-10-14T02:16:18.629Z,26.20
2022-10-14T02:18:59.019Z,26.10
2022-10-14T02:21:40.043Z,26.10
2022-10-14T02:24:24.243Z,26.10
2022-10-14T02:26:54.555Z,25.90
2022-10-14T02:29:23.563Z,25.90
2022-10-14T02:31:51.906Z,25.80
2022-10-14T02:34:22.117Z,25.90
2022-10-14T02:36:50.775Z,25.90
2022-10-14T02:39:24.763Z,26.00
2022-10-14T02:41:51.792Z,26.40
2022-10-14T02:44:19.050Z,26.40
2022-10-14T02:46:46.002Z,26.40
2022-10-14T02:49:13.289Z,26.10
2022-10-14T02:51:40.260Z,26.00
2022-10-14T02:54:07.162Z,26.00
2022-10-14T02:56:34.089Z,26.00
2022-10-14T02:59:00.997Z,26.00
2022-10-14T03:01:27.974Z,26.00
2022-10-14T03:03:55.027Z,26.00
2022-10-14T03:06:21.956Z,26.10
2022-10-14T03:08:48.821Z,26.20
2022-10-14T03:11:15.822Z,26.30
2022-10-14T03:13:42.788Z,26.30
2022-10-14T03:16:09.645Z,26.40
2022-10-14T03:18:36.545Z,26.50
2022-10-14T03:21:03.547Z,26.50
2022-10-14T03:23:30.404Z,26.60
2022-10-14T03:25:57.398Z,26.50
2022-10-14T03:28:24.391Z,26.50
2022-10-14T03:30:51.403Z,26.60
2022-10-14T03:33:20.540Z,26.40
2022-10-14T03:35:47.658Z,26.40
2022-10-14T03:38:14.565Z,26.40
2022-10-14T03:40:41.466Z,26.30
2022-10-14T03:43:08.416Z,26.20
2022-10-14T03:45:36.041Z,26.20
2022-10-14T03:48:02.959Z,26.30
2022-10-14T03:50:29.990Z,26.40
2022-10-14T03:52:56.932Z,26.80
2022-10-14T03:55:24.625Z,27.00
2022-10-14T03:57:51.923Z,27.40
2022-10-14T04:00:19.083Z,27.70
2022-10-14T04:02:45.950Z,27.60
2022-10-14T04:05:12.878Z,27.30
2022-10-14T04:07:39.900Z,26.80
2022-10-14T04:10:07.461Z,26.90
2022-10-14T04:12:34.365Z,26.30
2022-10-14T04:15:01.312Z,26.50
2022-10-14T04:17:28.270Z,26.20
2022-10-14T04:19:55.325Z,26.10
2022-10-14T04:22:23.528Z,26.50
2022-10-14T04:24:51.081Z,26.70
2022-10-14T04:27:18.374Z,26.60
2022-10-14T04:29:45.522Z,26.20
2022-10-14T04:32:12.486Z,26.10
2022-10-14T04:34:39.486Z,25.90
2022-10-14T04:37:06.376Z,25.70
2022-10-14T04:39:33.231Z,25.60
2022-10-14T04:42:00.138Z,25.60
2022-10-14T04:44:27.379Z,25.50
2022-10-14T04:46:54.304Z,25.40
2022-10-14T04:49:21.511Z,25.40
2022-10-14T04:51:48.383Z,25.30
2022-10-14T04:54:15.340Z,25.20
2022-10-14T04:56:42.415Z,25.30
2022-10-14T04:59:11.081Z,25.30
2022-10-14T05:01:38.049Z,25.20
2022-10-14T05:04:05.330Z,25.20
2022-10-14T05:06:32.243Z,25.20
2022-10-14T05:08:59.197Z,25.20
2022-10-14T05:11:26.314Z,25.70
2022-10-14T05:13:53.197Z,25.10
2022-10-14T05:16:20.096Z,25.20
2022-10-14T05:18:47.037Z,25.20
2022-10-14T05:21:14.096Z,25.10
2022-10-14T05:23:41.023Z,25.10
2022-10-14T05:26:10.844Z,25.00
2022-10-14T05:28:40.742Z,25.20
2022-10-14T05:31:07.740Z,25.10
2022-10-14T05:33:34.846Z,25.20
2022-10-14T05:36:01.731Z,25.20
2022-10-14T05:38:31.186Z,25.20
2022-10-14T05:40:58.456Z,25.10
2022-10-14T05:43:30.915Z,25.20
2022-10-14T05:45:59.076Z,25.10
2022-10-14T05:48:26.064Z,25.20
2022-10-14T05:50:53.117Z,25.20
2022-10-14T05:53:20.174Z,25.20
2022-10-14T05:55:47.106Z,25.20
2022-10-14T05:58:14.026Z,25.10
2022-10-14T06:00:41.017Z,25.10
2022-10-14T06:03:11.605Z,25.20
2022-10-14T06:05:38.534Z,25.30
2022-10-14T06:08:05.756Z,25.20
2022-10-14T06:10:32.617Z,25.50
2022-10-14T06:12:59.495Z,25.40
2022-10-14T06:15:28.330Z,25.10
2022-10-14T06:17:55.203Z,25.30
2022-10-14T06:20:22.154Z,24.60
2022-10-14T06:22:49.139Z,24.60
2022-10-14T06:25:16.159Z,24.50
2022-10-14T06:27:43.107Z,24.10
2022-10-14T06:30:11.137Z,23.80
2022-10-14T06:32:37.984Z,24.10
2022-10-14T06:35:05.302Z,24.30
2022-10-14T06:37:32.273Z,24.50
2022-10-14T06:39:59.149Z,24.70
2022-10-14T06:42:26.719Z,24.80
2022-10-14T06:44:53.869Z,25.00
2022-10-14T06:47:21.016Z,25.30
2022-10-14T06:49:47.927Z,25.60
2022-10-14T06:52:14.832Z,25.70
2022-10-14T06:54:47.340Z,25.60
2022-10-14T06:57:15.322Z,25.40
2022-10-14T06:59:42.350Z,25.30
2022-10-14T07:02:10.385Z,26.00
2022-10-14T07:04:37.429Z,26.20
2022-10-14T07:07:04.374Z,25.90
2022-10-14T07:09:31.325Z,25.60
2022-10-14T07:11:58.381Z,25.30
2022-10-14T07:14:25.249Z,25.10
2022-10-14T07:16:53.296Z,25.00
2022-10-14T07:19:20.205Z,25.00
2022-10-14T07:21:47.064Z,24.80
2022-10-14T07:24:14.409Z,24.60
2022-10-14T07:26:41.407Z,24.40
2022-10-14T07:29:08.669Z,24.20
2022-10-14T07:31:35.941Z,24.20
2022-10-14T07:34:03.313Z,24.20
2022-10-14T07:36:30.514Z,24.30
2022-10-14T07:38:57.481Z,23.80
2022-10-14T07:41:25.954Z,23.60
2022-10-14T07:44:05.614Z,23.70
2022-10-14T07:46:34.963Z,23.70
2022-10-14T07:49:21.369Z,23.50
2022-10-14T07:51:48.983Z,23.30
2022-10-14T07:54:19.820Z,23.00
2022-10-14T07:56:49.539Z,23.20
2022-10-14T07:59:17.687Z,23.20
2022-10-14T08:01:47.616Z,23.30
2022-10-14T08:04:15.035Z,23.30
2022-10-14T08:06:42.489Z,23.10
2022-10-14T08:09:11.348Z,23.10
2022-10-14T08:11:38.922Z,23.20
2022-10-14T08:14:06.378Z,23.40
2022-10-14T08:16:35.745Z,23.70
2022-10-14T08:19:12.572Z,23.70
2022-10-14T08:21:42.022Z,23.90
2022-10-14T08:24:09.691Z,24.50
2022-10-14T08:26:39.067Z,24.30
2022-10-14T08:29:10.074Z,24.00
2022-10-14T08:31:36.881Z,24.20
2022-10-14T08:34:04.193Z,24.20
2022-10-14T08:36:31.244Z,24.40
2022-10-14T08:38:58.209Z,24.80
2022-10-14T08:41:49.866Z,24.90
2022-10-14T08:44:30.602Z,24.80
2022-10-14T08:47:01.535Z,25.00
2022-10-14T08:49:47.135Z,25.40
2022-10-14T08:52:19.019Z,25.10
2022-10-14T08:54:51.582Z,25.10
2022-10-14T08:57:21.652Z,24.80
2022-10-14T08:59:49.029Z,24.70
2022-10-14T09:02:29.405Z,24.40
2022-10-14T09:04:59.185Z,23.40
2022-10-14T09:07:26.347Z,23.60
2022-10-14T09:10:02.393Z,22.90
2022-10-14T09:12:32.176Z,22.60
2022-10-14T09:15:13.895Z,22.50
2022-10-14T09:17:46.385Z,22.20
2022-10-14T09:20:24.916Z,21.90
2022-10-14T09:23:10.573Z,21.60
2022-10-14T09:25:40.439Z,21.00
2022-10-14T09:28:09.320Z,21.10
2022-10-14T09:30:40.676Z,21.10
2022-10-14T09:33:14.397Z,21.20
2022-10-14T09:35:43.093Z,21.40
2022-10-14T09:38:12.658Z,21.60
2022-10-14T09:40:51.043Z,21.60
2022-10-14T09:43:20.500Z,21.20
2022-10-14T09:46:08.093Z,21.50
2022-10-14T09:48:51.231Z,21.30
2022-10-14T09:51:25.865Z,21.10
2022-10-14T09:53:58.557Z,20.90
2022-10-14T09:56:38.958Z,20.60
2022-10-14T09:59:24.495Z,20.50
2022-10-14T10:02:04.086Z,20.40
2022-10-14T10:04:33.890Z,20.50
2022-10-14T10:07:07.081Z,20.80
2022-10-14T10:09:34.855Z,21.30
2022-10-14T10:12:28.937Z,21.20
2022-10-14T10:15:03.813Z,21.10
2022-10-14T10:17:33.007Z,21.10
2022-10-14T10:20:20.605Z,21.40
2022-10-14T10:22:47.540Z,21.70
2022-10-14T10:25:14.425Z,21.20
2022-10-14T10:27:43.185Z,21.10
2022-10-14T10:30:22.635Z,21.40
2022-10-14T10:33:13.551Z,20.90
2022-10-14T10:38:58.086Z,21.40
2022-10-14T10:41:47.617Z,20.90
2022-10-14T10:44:22.554Z,20.60
2022-10-14T10:47:12.740Z,20.60
2022-10-14T10:50:11.495Z,21.00
2022-10-14T10:52:57.286Z,21.20
2022-10-14T10:55:27.248Z,20.60
2022-10-14T10:58:34.462Z,20.80
2022-10-14T11:01:36.897Z,21.10
2022-10-14T11:04:22.390Z,21.30
2022-10-14T11:07:30.447Z,21.30
2022-10-14T11:10:30.656Z,20.70
2022-10-14T11:13:40.481Z,21.40
2022-10-14T11:16:23.315Z,21.00
2022-10-14T11:18:51.341Z,21.00
2022-10-14T11:21:27.268Z,20.50
2022-10-14T11:24:02.243Z,19.90
2022-10-14T11:26:47.858Z,19.50
2022-10-14T11:29:41.138Z,19.70
2022-10-14T11:32:26.103Z,19.70
2022-10-14T11:35:25.059Z,19.50
2022-10-14T11:37:58.621Z,19.30
2022-10-14T11:41:11.480Z,19.40
2022-10-14T11:43:45.289Z,20.20
2022-10-14T11:46:18.828Z,20.60
2022-10-14T11:48:53.969Z,21.40
2022-10-14T11:51:35.664Z,21.60
2022-10-14T11:54:11.582Z,21.80
2022-10-14T11:56:53.185Z,22.20
2022-10-14T11:59:40.192Z,22.60
2022-10-14T12:02:16.196Z,22.30
2022-10-14T12:04:46.525Z,22.50
2022-10-14T12:07:22.775Z,22.40
2022-10-14T12:09:59.936Z,22.10
2022-10-14T12:12:29.470Z,21.60
2022-10-14T12:15:00.571Z,21.40
2022-10-14T12:17:51.102Z,21.40
2022-10-14T12:20:52.071Z,21.30
2022-10-14T12:23:41.812Z,21.00
2022-10-14T12:26:34.405Z,20.90
2022-10-14T12:29:03.876Z,20.30
2022-10-14T12:31:36.749Z,20.20
2022-10-14T12:34:15.140Z,20.30
2022-10-14T12:36:47.692Z,20.30
2022-10-14T12:39:20.162Z,20.70
2022-10-14T12:42:14.017Z,21.00
2022-10-14T12:44:56.155Z,21.50
2022-10-14T12:47:31.000Z,22.10
2022-10-14T12:50:02.638Z,22.70
2022-10-14T12:52:38.646Z,22.60
2022-10-14T12:55:16.034Z,22.30
2022-10-14T12:57:43.375Z,21.70
2022-10-14T13:00:22.770Z,21.50
2022-10-14T13:02:53.468Z,21.40
2022-10-14T13:05:32.582Z,21.30
2022-10-14T13:08:19.806Z,20.90
2022-10-14T13:10:55.506Z,21.30
2022-10-14T13:14:01.911Z,21.40
2022-10-14T13:16:28.779Z,21.50
2022-10-14T13:18:59.696Z,21.70
2022-10-14T13:21:33.668Z,21.40
2022-10-14T13:24:39.710Z,21.30
2022-10-14T13:27:22.923Z,20.90
2022-10-14T13:30:18.747Z,21.30
2022-10-14T13:32:49.148Z,22.30
2022-10-14T13:35:31.921Z,22.30
2022-10-14T13:38:08.076Z,22.70
2022-10-14T13:40:37.074Z,23.50
2022-10-14T13:43:35.255Z,22.70
2022-10-14T13:46:22.769Z,23.10
2022-10-14T13:48:52.751Z,23.60
2022-10-14T13:51:52.225Z,23.20
2022-10-14T13:54:20.765Z,23.30
2022-10-14T13:57:42.657Z,23.60
2022-10-14T14:00:39.678Z,23.40
2022-10-14T14:02:47.967Z,23.60
2022-10-14T14:05:18.845Z,23.70
2022-10-14T14:10:51.452Z,23.60
2022-10-14T14:13:25.661Z,23.30
2022-10-14T14:15:55.213Z,23.30
2022-10-14T14:18:49.293Z,23.30
2022-10-14T14:21:25.722Z,23.40
2022-10-14T14:23:58.160Z,23.30
2022-10-14T14:26:37.573Z,23.20
2022-10-14T14:29:28.892Z,23.60
2022-10-14T14:32:07.048Z,23.60
2022-10-14T14:34:37.053Z,23.80
2022-10-14T14:37:34.388Z,23.80
2022-10-14T14:39:58.642Z,23.90
2022-10-14T14:42:27.495Z,24.00
2022-10-14T14:45:01.839Z,23.90
2022-10-14T14:47:31.855Z,24.00
2022-10-14T14:50:18.309Z,24.10
2022-10-14T14:52:48.428Z,24.20
2022-10-14T14:55:54.114Z,24.30
2022-10-14T14:58:33.382Z,24.30
2022-10-14T15:01:00.394Z,24.20
2022-10-14T15:03:31.543Z,24.20
2022-10-14T15:06:05.740Z,24.20
2022-10-14T15:08:38.358Z,24.20
2022-10-14T15:11:06.410Z,24.40
2022-10-14T15:13:39.565Z,24.30
2022-10-14T15:16:07.545Z,24.50
2022-10-14T15:18:37.660Z,24.60
2022-10-14T15:21:05.944Z,24.50
2022-10-14T15:23:49.588Z,24.40
2022-10-14T15:26:31.556Z,24.50
2022-10-14T15:29:06.303Z,24.50
2022-10-14T15:31:33.738Z,24.20
2022-10-14T15:34:01.408Z,24.30
2022-10-14T15:36:33.474Z,24.20
2022-10-14T15:39:01.681Z,24.30
2022-10-14T15:41:29.292Z,24.50
2022-10-14T15:43:56.439Z,24.40
2022-10-14T15:46:42.004Z,24.40
2022-10-14T15:49:20.232Z,24.70
2022-10-14T15:51:47.770Z,24.70
2022-10-14T15:54:16.048Z,24.70
2022-10-14T15:56:43.149Z,24.80
2022-10-14T15:59:10.304Z,24.80
2022-10-14T16:01:39.895Z,24.80
2022-10-14T16:04:15.847Z,24.90
2022-10-14T16:06:42.806Z,25.50
2022-10-14T16:09:09.776Z,25.00
2022-10-14T16:11:39.602Z,25.00
2022-10-14T16:14:08.261Z,25.00
2022-10-14T16:16:40.660Z,25.00
2022-10-14T16:19:07.547Z,25.00
2022-10-14T16:21:34.511Z,25.00
2022-10-14T16:24:02.778Z,25.10
2022-10-14T16:26:30.879Z,25.00
2022-10-14T16:29:03.367Z,25.00
2022-10-14T16:31:30.457Z,25.10
2022-10-14T16:33:57.374Z,25.10
2022-10-14T16:36:26.261Z,25.20
2022-10-14T16:38:53.394Z,25.20
2022-10-14T16:41:20.499Z,25.30
2022-10-14T16:43:50.161Z,25.30
2022-10-14T16:46:17.313Z,25.40
2022-10-14T16:48:45.082Z,25.60
2022-10-14T16:51:12.276Z,25.30
2022-10-14T16:53:41.999Z,25.30
2022-10-14T16:56:32.644Z,25.40
2022-10-14T16:59:01.096Z,25.50
2022-10-14T17:01:28.951Z,25.50
2022-10-14T17:03:57.173Z,25.50
2022-10-14T17:06:25.609Z,25.50
2022-10-14T17:08:53.126Z,25.50
2022-10-14T17:11:20.412Z,25.60
2022-10-14T17:13:50.605Z,25.70
2022-10-14T17:16:17.527Z,25.80
2022-10-14T17:18:44.454Z,25.80
2022-10-14T17:21:14.426Z,25.90
2022-10-14T17:23:42.942Z,25.80
2022-10-14T17:26:13.297Z,25.90
2022-10-14T17:28:41.733Z,26.00
2022-10-14T17:31:11.044Z,26.10
2022-10-14T17:33:38.805Z,26.10
2022-10-14T17:36:06.786Z,26.10
2022-10-14T17:38:35.373Z,26.10
2022-10-14T17:41:04.557Z,26.10
2022-10-14T17:43:31.794Z,26.10
2022-10-14T17:48:43.991Z,26.20
2022-10-14T17:51:12.246Z,26.10
2022-10-14T17:53:40.028Z,26.00
2022-10-14T17:56:11.509Z,25.90
2022-10-14T17:58:39.546Z,26.10
2022-10-14T18:01:13.513Z,26.00
2022-10-14T18:03:43.715Z,25.90
2022-10-14T18:06:26.588Z,25.80
2022-10-14T18:09:01.640Z,25.70
2022-10-14T18:12:03.466Z,25.60
2022-10-14T18:14:26.365Z,25.50
2022-10-14T18:16:57.004Z,25.50
2022-10-14T18:19:23.904Z,25.50
2022-10-14T18:21:51.788Z,25.70
2022-10-14T18:24:18.922Z,25.80
2022-10-14T18:26:45.834Z,25.90
2022-10-14T18:29:12.921Z,25.80
2022-10-14T18:31:39.982Z,25.60
2022-10-14T18:34:11.188Z,25.70
2022-10-14T18:36:40.100Z,25.80
2022-10-14T18:39:10.442Z,25.70
2022-10-14T18:41:38.129Z,25.70
2022-10-14T18:44:06.516Z,25.80
2022-10-14T18:46:36.447Z,25.90
2022-10-14T18:49:08.580Z,26.00
2022-10-14T18:52:06.133Z,26.10
2022-10-14T18:54:36.117Z,26.10
2022-10-14T18:57:03.308Z,26.30
2022-10-14T18:59:30.201Z,26.30
2022-10-14T19:01:57.311Z,26.40
2022-10-14T19:04:27.042Z,26.20
2022-10-14T19:06:54.577Z,26.20
2022-10-14T19:09:26.791Z,26.10
2022-10-14T19:11:53.881Z,26.10
2022-10-14T19:14:22.377Z,26.10
2022-10-14T19:16:49.946Z,26.20
2022-10-14T19:19:19.743Z,26.10
2022-10-14T19:21:50.651Z,26.10
2022-10-14T19:24:17.642Z,26.10
2022-10-14T19:26:46.601Z,26.00
2022-10-14T19:29:15.345Z,25.80
2022-10-14T19:31:43.973Z,25.90
2022-10-14T19:34:14.043Z,25.90
2022-10-14T19:36:42.458Z,26.00
2022-10-14T19:39:13.068Z,26.00
2022-10-14T19:41:43.366Z,25.90
2022-10-14T19:44:11.688Z,25.90
2022-10-14T19:46:39.079Z,25.90
2022-10-14T19:49:06.534Z,26.00
2022-10-14T19:51:34.874Z,26.00
2022-10-14T19:54:02.462Z,25.90
2022-10-14T19:56:30.324Z,25.90
2022-10-14T19:59:00.137Z,25.80
2022-10-14T20:01:30.332Z,25.90
2022-10-14T20:03:59.047Z,26.20
2022-10-14T20:06:27.662Z,26.40
2022-10-14T20:08:55.085Z,26.60
2022-10-14T20:11:25.036Z,26.50
2022-10-14T20:13:52.468Z,27.30
2022-10-14T20:16:22.742Z,27.00
2022-10-14T20:18:49.716Z,27.00
2022-10-14T20:21:16.977Z,26.90
2022-10-14T20:23:44.983Z,26.90
2022-10-14T20:26:15.253Z,26.80
2022-10-14T20:28:42.378Z,26.60
2022-10-14T20:31:17.489Z,27.30
2022-10-14T20:33:44.467Z,26.80
2022-10-14T20:36:17.266Z,27.00
2022-10-14T20:38:45.136Z,27.00
2022-10-14T20:41:23.697Z,27.00
2022-10-14T20:43:51.245Z,27.00
2022-10-14T20:46:18.854Z,26.90
2022-10-14T20:48:46.245Z,26.90
2022-10-14T20:51:21.039Z,27.00
2022-10-14T20:53:48.196Z,26.80
2022-10-14T20:56:15.905Z,27.00
2022-10-14T20:58:43.263Z,27.10
2022-10-14T21:01:15.855Z,26.90
2022-10-14T21:03:44.644Z,27.00
2022-10-14T21:06:19.649Z,27.10
2022-10-14T21:08:49.902Z,27.10
2022-10-14T21:11:20.885Z,27.30
2022-10-14T21:13:50.515Z,27.30
2022-10-14T21:16:29.893Z,27.20
2022-10-14T21:19:03.607Z,27.30
2022-10-14T21:21:38.069Z,27.00
2022-10-14T21:24:07.116Z,26.70
2022-10-14T21:26:34.471Z,26.70
2022-10-14T21:29:05.014Z,26.60
2022-10-14T21:31:32.939Z,26.90
2022-10-14T21:34:05.834Z,27.00
2022-10-14T21:36:34.849Z,27.20
2022-10-14T21:39:08.657Z,27.20
2022-10-14T21:41:36.376Z,27.30
2022-10-14T21:44:06.351Z,27.40
2022-10-14T21:46:34.074Z,27.40
2022-10-14T21:49:02.454Z,27.40
2022-10-14T21:51:30.954Z,27.70
2022-10-14T21:53:58.416Z,27.80
2022-10-14T21:56:26.881Z,27.40
2022-10-14T21:58:54.498Z,27.30
2022-10-14T22:01:30.844Z,27.30
2022-10-14T22:04:00.505Z,27.20
2022-10-14T22:06:28.169Z,27.30
2022-10-14T22:08:57.116Z,27.00
2022-10-14T22:11:32.997Z,26.90
2022-10-14T22:14:02.298Z,27.10
2022-10-14T22:16:30.299Z,26.90
2022-10-14T22:19:00.198Z,26.90
2022-10-14T22:21:29.937Z,26.80
2022-10-14T22:23:58.486Z,27.10
2022-10-14T22:26:26.792Z,26.90
2022-10-14T22:29:02.148Z,26.90
2022-10-14T22:31:30.708Z,26.80
2022-10-14T22:33:58.985Z,27.00
2022-10-14T22:36:28.747Z,27.00
2022-10-14T22:38:56.623Z,27.00
2022-10-14T22:41:25.471Z,27.20
2022-10-14T22:43:57.945Z,27.20
2022-10-14T22:46:28.145Z,27.40
2022-10-14T22:48:57.001Z,27.40
2022-10-14T22:53:54.452Z,27.40
2022-10-14T22:56:23.257Z,27.50
2022-10-14T22:59:19.664Z,27.30
2022-10-14T23:01:46.807Z,27.30
2022-10-14T23:04:13.837Z,27.40
2022-10-14T23:06:43.816Z,27.40
2022-10-14T23:09:10.981Z,27.70
2022-10-14T23:11:38.638Z,27.60
2022-10-14T23:14:07.313Z,27.60
2022-10-14T23:16:34.967Z,27.70
2022-10-14T23:19:02.158Z,27.90
2022-10-14T23:21:31.832Z,28.00
2022-10-14T23:24:01.153Z,28.00
2022-10-14T23:26:31.771Z,28.30
2022-10-14T23:29:00.379Z,28.40
2022-10-14T23:31:29.708Z,28.40
2022-10-14T23:34:01.324Z,28.60
2022-10-14T23:36:28.535Z,28.40
2022-10-14T23:38:55.841Z,28.30
2022-10-14T23:41:23.745Z,28.30
2022-10-14T23:43:52.353Z,28.30
2022-10-14T23:46:20.245Z,28.30
2022-10-14T23:48:55.479Z,27.90
2022-10-14T23:51:34.080Z,27.80
2022-10-14T23:54:01.128Z,27.80
2022-10-14T23:56:28.086Z,27.80
2022-10-14T23:58:54.986Z,27.50
